Terminal Aerodrome Forecast
Issued by NWS Knoxville/Tri Cities, TN

Home | Current Version | Previous Version | Text Only | Print | Product List | Glossary On
Versions: 1 2 3 4 5 6 7 8 9 10 11 12 13 14 15 16 17 18 19 20 21 22 23 24
000
FTUS44 KMRX 242321
TAFTRI
TAF
KTRI 242321Z 2500/2524 00000KT P6SM BKN250
     FM250500 00000KT P6SM BKN070 OVC150
     FM250900 VRB03KT P6SM VCSH BKN050 OVC120
     FM251400 17007KT 5SM -SHRA BR BKN035 OVC100
     FM251800 20008KT 3SM SHRA BR BKN015 OVC030
     FM252200 23010KT 4SM -SHRA BR VCTS BKN025CB OVC050=

USA.gov is the U.S. government's official web portal to all federal, state and local government web resources and services.